createdAt,value
2018-03-04T00:00:07.019Z,30.70
2018-03-04T00:02:48.080Z,30.00
2018-03-04T00:05:26.240Z,30.00
2018-03-04T00:08:04.764Z,28.30
2018-03-04T00:10:44.303Z,28.90
2018-03-04T00:13:23.756Z,28.20
2018-03-04T00:16:02.215Z,26.10
2018-03-04T00:18:40.818Z,26.40
2018-03-04T00:21:20.141Z,26.50
2018-03-04T00:23:59.354Z,26.00
2018-03-04T00:26:40.960Z,25.90
2018-03-04T00:29:19.536Z,25.10
2018-03-04T00:31:59.640Z,24.80
2018-03-04T00:34:38.558Z,24.80
2018-03-04T00:37:18.121Z,23.30
2018-03-04T00:39:57.740Z,20.10
2018-03-04T00:42:36.217Z,21.40
2018-03-04T00:45:16.916Z,21.00
2018-03-04T00:47:56.232Z,20.80
2018-03-04T00:50:34.807Z,22.20
2018-03-04T00:53:15.366Z,22.30
2018-03-04T00:55:53.921Z,22.20
2018-03-04T00:58:36.426Z,22.30
2018-03-04T01:01:19.484Z,22.90
2018-03-04T01:03:58.536Z,22.20
2018-03-04T01:06:38.015Z,22.10
2018-03-04T01:09:16.549Z,20.70
2018-03-04T01:11:55.927Z,21.50
2018-03-04T01:14:36.462Z,21.40
2018-03-04T01:17:16.282Z,22.30
2018-03-04T01:19:56.906Z,24.50
2018-03-04T01:22:36.383Z,23.20
2018-03-04T01:25:16.865Z,25.50
2018-03-04T01:27:55.257Z,26.20
2018-03-04T01:30:37.155Z,26.90
2018-03-04T01:33:17.087Z,27.60
2018-03-04T01:35:57.256Z,29.20
2018-03-04T01:38:36.323Z,29.20
2018-03-04T01:41:14.764Z,29.70
2018-03-04T01:43:53.209Z,30.00
2018-03-04T01:46:33.189Z,30.70
2018-03-04T01:49:13.042Z,31.80
2018-03-04T01:51:59.594Z,30.20
2018-03-04T01:54:40.178Z,30.10
2018-03-04T01:57:18.796Z,34.80
2018-03-04T01:59:57.302Z,35.10
2018-03-04T02:02:36.850Z,36.90
2018-03-04T02:05:14.358Z,36.80
2018-03-04T02:07:54.931Z,37.20
2018-03-04T02:10:33.425Z,37.10
2018-03-04T02:13:12.909Z,36.60
2018-03-04T02:15:53.432Z,38.20
2018-03-04T02:18:32.979Z,38.20
2018-03-04T02:21:14.126Z,38.80
2018-03-04T02:23:56.283Z,38.60
2018-03-04T02:26:35.804Z,38.40
2018-03-04T02:29:15.454Z,38.90
2018-03-04T02:31:55.875Z,38.20
2018-03-04T02:34:34.410Z,39.00
2018-03-04T02:37:13.144Z,38.90
2018-03-04T02:39:53.593Z,41.50
2018-03-04T02:42:33.125Z,41.40
2018-03-04T02:45:11.526Z,42.70
2018-03-04T02:47:51.262Z,44.50
2018-03-04T02:50:29.528Z,44.40
2018-03-04T02:53:08.110Z,45.00
2018-03-04T02:55:46.569Z,46.20
2018-03-04T02:58:25.471Z,46.10
2018-03-04T03:01:03.991Z,46.80
2018-03-04T03:03:41.574Z,47.50
2018-03-04T03:06:21.107Z,47.70
2018-03-04T03:09:02.809Z,48.20
2018-03-04T03:11:41.262Z,48.30
2018-03-04T03:14:19.650Z,49.30
2018-03-04T03:17:01.974Z,49.80
2018-03-04T03:19:40.647Z,50.00
2018-03-04T03:22:21.589Z,50.90
2018-03-04T03:25:02.134Z,50.90
2018-03-04T03:30:32.681Z,51.80
2018-03-04T03:33:12.549Z,51.60
2018-03-04T03:35:51.780Z,51.50
2018-03-04T03:38:31.753Z,51.70
2018-03-04T03:41:10.167Z,51.80
2018-03-04T03:43:50.298Z,52.50
2018-03-04T03:46:29.273Z,53.20
2018-03-04T03:49:08.725Z,54.20
2018-03-04T03:51:47.190Z,54.00
2018-03-04T03:54:27.841Z,55.60
2018-03-04T03:57:07.454Z,55.80
2018-03-04T03:59:48.988Z,56.10
2018-03-04T04:02:28.451Z,57.70
2018-03-04T04:05:06.906Z,58.00
2018-03-04T04:07:48.447Z,58.20
2018-03-04T04:10:27.941Z,58.40
2018-03-04T04:13:07.286Z,58.50
2018-03-04T04:15:45.641Z,58.40
2018-03-04T04:18:25.007Z,58.70
2018-03-04T04:21:03.548Z,59.10
2018-03-04T04:23:42.111Z,59.50
2018-03-04T04:26:20.683Z,59.80
2018-03-04T04:28:59.103Z,59.70
2018-03-04T04:31:38.524Z,60.00
2018-03-04T04:34:16.864Z,60.20
2018-03-04T04:36:54.382Z,60.50
2018-03-04T04:39:33.905Z,60.70
2018-03-04T04:42:14.273Z,61.00
2018-03-04T04:44:52.945Z,61.80
2018-03-04T04:47:31.077Z,61.20
2018-03-04T04:50:09.510Z,61.40
2018-03-04T04:52:48.943Z,61.00
2018-03-04T04:55:28.548Z,61.20
2018-03-04T04:58:08.103Z,61.50
2018-03-04T05:00:47.747Z,61.80
2018-03-04T05:03:27.284Z,61.80
2018-03-04T05:06:06.744Z,62.20
2018-03-04T05:08:45.370Z,62.40
2018-03-04T05:11:28.091Z,62.50
2018-03-04T05:14:06.411Z,63.20
2018-03-04T05:16:45.912Z,63.10
2018-03-04T05:19:25.332Z,63.70
2018-03-04T05:22:03.835Z,63.50
2018-03-04T05:24:42.791Z,63.80
2018-03-04T05:27:21.686Z,64.20
2018-03-04T05:30:03.449Z,64.80
2018-03-04T05:32:41.906Z,66.40
2018-03-04T05:35:21.263Z,67.30
2018-03-04T05:37:59.758Z,67.20
2018-03-04T05:40:38.086Z,67.60
2018-03-04T05:43:16.552Z,67.50
2018-03-04T05:45:54.962Z,67.30
2018-03-04T05:48:36.416Z,67.10
2018-03-04T05:51:16.942Z,66.10
2018-03-04T05:53:55.436Z,65.90
2018-03-04T05:56:33.921Z,66.80
2018-03-04T05:59:13.565Z,66.70
2018-03-04T06:01:52.251Z,67.30
2018-03-04T06:04:32.081Z,67.20
2018-03-04T06:07:12.889Z,68.30
2018-03-04T06:09:52.469Z,69.20
2018-03-04T06:12:31.951Z,69.80
2018-03-04T06:15:10.590Z,70.20
2018-03-04T06:17:50.833Z,71.20
2018-03-04T06:20:31.290Z,71.20
2018-03-04T06:23:12.863Z,71.40
2018-03-04T06:25:52.420Z,71.60
2018-03-04T06:28:32.107Z,71.60
2018-03-04T06:31:10.575Z,72.30
2018-03-04T06:33:49.125Z,72.40
2018-03-04T06:36:28.817Z,73.00
2018-03-04T06:39:09.528Z,73.00
2018-03-04T06:41:50.026Z,72.80
2018-03-04T06:44:28.673Z,72.70
2018-03-04T06:47:08.385Z,72.70
2018-03-04T06:49:46.902Z,73.10
2018-03-04T06:52:26.427Z,73.40
2018-03-04T06:55:05.793Z,73.80
2018-03-04T06:57:44.426Z,73.90
2018-03-04T07:00:22.937Z,73.80
2018-03-04T07:03:05.110Z,73.50
2018-03-04T07:05:45.048Z,73.80
2018-03-04T07:08:24.529Z,74.20
2018-03-04T07:11:04.247Z,74.00
2018-03-04T07:13:42.727Z,74.10
2018-03-04T07:16:22.039Z,73.10
2018-03-04T07:19:01.685Z,72.70
2018-03-04T07:21:42.268Z,73.20
2018-03-04T07:24:20.623Z,73.30
2018-03-04T07:26:59.044Z,73.90
2018-03-04T07:29:37.454Z,74.20
2018-03-04T07:32:16.974Z,74.10
2018-03-04T07:34:55.677Z,74.20
2018-03-04T07:37:34.059Z,74.50
2018-03-04T07:40:13.410Z,75.60
2018-03-04T07:42:53.994Z,75.40
2018-03-04T07:45:32.603Z,75.80
2018-03-04T07:48:11.198Z,76.00
2018-03-04T07:50:50.694Z,76.10
2018-03-04T07:53:30.303Z,76.50
2018-03-04T07:56:09.015Z,76.70
2018-03-04T07:58:47.813Z,77.10
2018-03-04T08:01:28.252Z,77.60
2018-03-04T08:04:09.133Z,77.70
2018-03-04T08:06:49.989Z,77.70
2018-03-04T08:09:29.512Z,77.80
2018-03-04T08:12:11.023Z,77.40
2018-03-04T08:14:51.742Z,77.00
2018-03-04T08:17:30.360Z,77.10
2018-03-04T08:20:11.877Z,76.80
2018-03-04T08:22:51.524Z,76.50
2018-03-04T08:25:40.138Z,76.50
2018-03-04T08:28:32.730Z,76.40
2018-03-04T08:31:12.127Z,76.40
2018-03-04T08:33:52.763Z,76.20
2018-03-04T08:36:31.368Z,75.50
2018-03-04T08:39:10.919Z,75.10
2018-03-04T08:41:49.354Z,75.00
2018-03-04T08:44:28.030Z,75.10
2018-03-04T08:47:08.489Z,75.20
2018-03-04T08:49:49.123Z,75.50
2018-03-04T08:52:29.132Z,75.50
2018-03-04T08:55:07.207Z,75.60
2018-03-04T08:57:45.722Z,75.80
2018-03-04T09:00:24.234Z,75.70
2018-03-04T09:03:02.746Z,75.40
2018-03-04T09:05:45.806Z,75.30
2018-03-04T09:08:25.960Z,75.60
2018-03-04T09:11:05.605Z,75.60
2018-03-04T09:13:45.140Z,75.40
2018-03-04T09:16:23.595Z,75.20
2018-03-04T09:19:02.193Z,74.80
2018-03-04T09:21:44.907Z,75.10
2018-03-04T09:24:23.241Z,75.40
2018-03-04T09:27:04.857Z,75.80
2018-03-04T09:29:43.407Z,75.80
2018-03-04T09:32:22.985Z,75.80
2018-03-04T09:35:02.717Z,76.00
2018-03-04T09:37:42.302Z,76.40
2018-03-04T09:40:20.714Z,76.60
2018-03-04T09:43:00.261Z,76.30
2018-03-04T09:45:38.749Z,76.40
2018-03-04T09:48:17.297Z,76.70
2018-03-04T09:50:57.937Z,77.10
2018-03-04T09:53:38.327Z,77.30
2018-03-04T09:56:17.796Z,77.20
2018-03-04T09:58:56.206Z,76.90
2018-03-04T10:01:35.724Z,76.70
2018-03-04T10:04:16.088Z,76.80
2018-03-04T10:06:56.767Z,76.80
2018-03-04T10:09:36.266Z,77.00
2018-03-04T10:12:17.978Z,77.20
2018-03-04T10:14:58.541Z,77.10
2018-03-04T10:17:37.141Z,76.30
2018-03-04T10:20:17.953Z,75.20
2018-03-04T10:22:56.378Z,74.90
2018-03-04T10:25:34.688Z,75.00
2018-03-04T10:28:12.981Z,74.90
2018-03-04T10:30:54.527Z,74.90
2018-03-04T10:33:37.137Z,73.90
2018-03-04T10:36:16.707Z,73.50
2018-03-04T10:38:54.183Z,73.20
2018-03-04T10:41:32.682Z,73.50
2018-03-04T10:44:13.448Z,73.00
2018-03-04T10:46:54.063Z,73.00
2018-03-04T10:49:32.644Z,73.50
2018-03-04T10:52:12.092Z,73.80
2018-03-04T10:54:50.692Z,74.00
2018-03-04T10:57:29.157Z,73.80
2018-03-04T11:00:08.692Z,73.80
2018-03-04T11:02:53.183Z,74.20
2018-03-04T11:05:34.653Z,74.50
2018-03-04T11:08:13.218Z,74.60
2018-03-04T11:10:51.374Z,75.20
2018-03-04T11:13:30.998Z,75.90
2018-03-04T11:16:12.664Z,76.50
2018-03-04T11:18:50.107Z,76.70
2018-03-04T11:21:29.692Z,76.10
2018-03-04T11:24:09.378Z,76.30
2018-03-04T11:26:49.188Z,76.70
2018-03-04T11:29:30.973Z,77.00
2018-03-04T11:32:11.633Z,77.50
2018-03-04T11:34:56.796Z,78.50
2018-03-04T11:37:33.984Z,79.30
2018-03-04T11:40:14.337Z,79.50
2018-03-04T11:42:54.017Z,79.90
2018-03-04T11:45:34.349Z,80.20
2018-03-04T11:48:12.849Z,80.00
2018-03-04T11:50:51.606Z,80.10
2018-03-04T11:53:29.898Z,80.80
2018-03-04T11:56:08.935Z,81.10
2018-03-04T11:58:48.134Z,80.80
2018-03-04T12:01:27.741Z,80.80
2018-03-04T12:04:06.343Z,80.80
2018-03-04T12:06:46.007Z,80.90
2018-03-04T12:09:25.570Z,81.10
2018-03-04T12:12:04.069Z,81.20
2018-03-04T12:14:43.779Z,81.10
2018-03-04T12:17:22.146Z,80.70
2018-03-04T12:20:00.351Z,80.40
2018-03-04T12:22:38.850Z,80.10
2018-03-04T12:25:19.515Z,79.90
2018-03-04T12:27:58.085Z,79.70
2018-03-04T12:30:36.759Z,79.80
2018-03-04T12:33:16.451Z,79.70
2018-03-04T12:35:54.879Z,79.80
2018-03-04T12:38:34.531Z,79.80
2018-03-04T12:41:11.985Z,79.70
2018-03-04T12:43:50.632Z,79.40
2018-03-04T12:46:30.301Z,79.20
2018-03-04T12:49:08.834Z,79.30
2018-03-04T12:51:50.515Z,79.30
2018-03-04T12:54:30.036Z,79.80
2018-03-04T12:57:11.516Z,79.60
2018-03-04T12:59:51.029Z,79.90
2018-03-04T13:02:29.727Z,79.80
2018-03-04T13:05:08.226Z,79.80
2018-03-04T13:07:45.831Z,79.90
2018-03-04T13:10:25.452Z,79.60
2018-03-04T13:13:03.799Z,79.40
2018-03-04T13:15:42.468Z,79.30
2018-03-04T13:18:22.004Z,79.10
2018-03-04T13:21:00.564Z,79.10
2018-03-04T13:23:40.957Z,79.10
2018-03-04T13:26:23.446Z,79.50
2018-03-04T13:29:05.015Z,79.40
2018-03-04T13:31:43.570Z,79.90
2018-03-04T13:34:23.351Z,80.00
2018-03-04T13:37:02.838Z,80.70
2018-03-04T13:39:41.354Z,80.90
2018-03-04T13:42:19.928Z,81.20
2018-03-04T13:44:59.507Z,81.40
2018-03-04T13:47:37.010Z,81.80
2018-03-04T13:50:15.532Z,82.00
2018-03-04T13:52:55.076Z,82.20
2018-03-04T13:55:33.686Z,81.50
2018-03-04T13:58:15.371Z,82.80
2018-03-04T14:00:57.764Z,83.20
2018-03-04T14:03:38.741Z,83.50
2018-03-04T14:06:17.277Z,83.70
2018-03-04T14:08:56.929Z,84.20
2018-03-04T14:11:36.560Z,84.50
2018-03-04T14:14:17.202Z,84.10
2018-03-04T14:16:55.872Z,84.50
2018-03-04T14:19:35.576Z,84.80
2018-03-04T14:22:15.237Z,85.10
2018-03-04T14:24:55.842Z,85.40
2018-03-04T14:27:35.442Z,85.30
2018-03-04T14:30:14.009Z,85.10
2018-03-04T14:32:52.490Z,85.20
2018-03-04T14:35:31.194Z,85.30
2018-03-04T14:38:09.598Z,85.20
2018-03-04T14:40:49.510Z,85.40
2018-03-04T14:43:28.067Z,85.50
2018-03-04T14:46:07.595Z,85.70
2018-03-04T14:48:50.318Z,85.60
2018-03-04T14:51:29.948Z,85.70
2018-03-04T14:54:09.528Z,85.70
2018-03-04T14:56:48.127Z,85.80
2018-03-04T14:59:28.560Z,85.60
2018-03-04T15:02:08.150Z,85.50
2018-03-04T15:04:48.738Z,85.50
2018-03-04T15:07:30.110Z,85.40
2018-03-04T15:10:11.795Z,85.60
2018-03-04T15:12:51.328Z,85.70
2018-03-04T15:15:28.782Z,85.70
2018-03-04T15:18:07.318Z,85.80
2018-03-04T15:20:48.855Z,86.20
2018-03-04T15:23:28.268Z,86.20
2018-03-04T15:26:06.583Z,86.20
2018-03-04T15:28:46.301Z,86.00
2018-03-04T15:31:24.672Z,86.20
2018-03-04T15:34:05.234Z,86.20
2018-03-04T15:36:43.876Z,86.10
2018-03-04T15:39:23.523Z,86.10
2018-03-04T15:42:04.051Z,86.10
2018-03-04T15:44:43.846Z,85.90
2018-03-04T15:47:24.339Z,86.00
2018-03-04T15:50:05.913Z,85.20
2018-03-04T15:55:31.029Z,83.70
2018-03-04T15:58:11.444Z,83.50
2018-03-04T16:00:50.087Z,82.40
2018-03-04T16:03:29.463Z,82.40
2018-03-04T16:06:09.136Z,82.30
2018-03-04T16:08:51.718Z,82.80
2018-03-04T16:11:31.020Z,81.40
2018-03-04T16:14:12.627Z,74.50
2018-03-04T16:16:51.057Z,74.30
2018-03-04T16:19:29.520Z,74.10
2018-03-04T16:22:09.088Z,73.30
2018-03-04T16:24:47.479Z,72.80
2018-03-04T16:27:26.369Z,73.70
2018-03-04T16:30:04.724Z,70.40
2018-03-04T16:32:44.225Z,67.80
2018-03-04T16:35:22.663Z,67.80
2018-03-04T16:38:00.986Z,68.10
2018-03-04T16:40:42.664Z,68.50
2018-03-04T16:43:25.199Z,68.40
2018-03-04T16:46:04.496Z,69.50
2018-03-04T16:48:44.510Z,67.90
2018-03-04T16:51:22.871Z,66.40
2018-03-04T16:54:02.672Z,65.90
2018-03-04T16:56:41.278Z,65.80
2018-03-04T16:59:21.695Z,64.80
2018-03-04T17:02:00.220Z,64.20
2018-03-04T17:04:38.906Z,62.50
2018-03-04T17:07:18.256Z,62.60
2018-03-04T17:09:56.923Z,62.50
2018-03-04T17:12:39.171Z,62.60
2018-03-04T17:15:20.425Z,61.20
2018-03-04T17:18:02.846Z,62.10
2018-03-04T17:20:42.864Z,59.60
2018-03-04T17:23:21.752Z,61.80
2018-03-04T17:26:01.481Z,61.40
2018-03-04T17:28:39.973Z,62.60
2018-03-04T17:31:19.601Z,61.40
2018-03-04T17:33:58.099Z,60.50
2018-03-04T17:36:36.979Z,56.40
2018-03-04T17:39:15.489Z,56.40
2018-03-04T17:41:57.910Z,59.60
2018-03-04T17:44:36.393Z,59.20
2018-03-04T17:47:14.902Z,58.90
2018-03-04T17:49:56.306Z,56.60
2018-03-04T17:52:34.903Z,58.20
2018-03-04T17:55:14.494Z,57.50
2018-03-04T17:57:52.954Z,57.50
2018-03-04T18:00:31.423Z,52.20
2018-03-04T18:03:10.421Z,50.90
2018-03-04T18:05:50.599Z,51.20
2018-03-04T18:08:28.385Z,50.40
2018-03-04T18:11:06.984Z,50.60
2018-03-04T18:13:44.526Z,53.70
2018-03-04T18:16:23.119Z,50.80
2018-03-04T18:19:01.629Z,47.80
2018-03-04T18:21:41.099Z,51.50
2018-03-04T18:24:19.474Z,51.40
2018-03-04T18:27:00.148Z,49.90
2018-03-04T18:29:38.763Z,46.20
2018-03-04T18:32:18.271Z,45.20
2018-03-04T18:34:56.747Z,46.40
2018-03-04T18:37:35.355Z,47.30
2018-03-04T18:40:13.918Z,48.00
2018-03-04T18:42:53.461Z,40.60
2018-03-04T18:45:32.809Z,39.50
2018-03-04T18:48:11.721Z,40.60
2018-03-04T18:50:51.293Z,40.40
2018-03-04T18:53:31.952Z,40.50
2018-03-04T18:56:10.485Z,41.00
2018-03-04T18:58:49.010Z,38.90
2018-03-04T19:01:27.563Z,36.00
2018-03-04T19:04:08.223Z,34.80
2018-03-04T19:06:48.816Z,35.00
2018-03-04T19:09:27.448Z,32.70
2018-03-04T19:12:06.027Z,34.40
2018-03-04T19:14:44.473Z,31.60
2018-03-04T19:17:22.144Z,29.70
2018-03-04T19:20:00.680Z,30.00
2018-03-04T19:22:39.202Z,28.60
2018-03-04T19:25:17.027Z,30.70
2018-03-04T19:27:56.595Z,28.00
2018-03-04T19:30:36.027Z,29.40
2018-03-04T19:33:14.637Z,28.20
2018-03-04T19:35:53.240Z,28.00
2018-03-04T19:38:32.764Z,28.80
2018-03-04T19:41:11.307Z,29.00
2018-03-04T19:43:49.973Z,28.70
2018-03-04T19:46:28.322Z,29.70
2018-03-04T19:49:06.897Z,28.90
2018-03-04T19:51:45.507Z,27.40
2018-03-04T19:54:24.104Z,27.60
2018-03-04T19:57:04.433Z,28.60
2018-03-04T19:59:46.256Z,28.50
2018-03-04T20:02:25.864Z,28.80
2018-03-04T20:05:06.392Z,29.00
2018-03-04T20:07:47.849Z,28.40
2018-03-04T20:10:27.561Z,29.80
2018-03-04T20:13:12.520Z,30.70
2018-03-04T20:15:51.977Z,30.40
2018-03-04T20:18:30.417Z,30.30
2018-03-04T20:21:08.914Z,30.50
2018-03-04T20:23:47.275Z,28.90
2018-03-04T20:26:25.710Z,29.80
2018-03-04T20:29:04.395Z,29.90
2018-03-04T20:31:42.891Z,29.60
2018-03-04T20:34:21.518Z,29.20
2018-03-04T20:37:00.346Z,28.10
2018-03-04T20:39:38.768Z,32.20
2018-03-04T20:42:17.322Z,29.70
2018-03-04T20:44:56.961Z,28.10
2018-03-04T20:47:37.637Z,28.10
2018-03-04T20:50:16.914Z,29.40
2018-03-04T20:52:56.418Z,29.10
2018-03-04T20:55:36.988Z,30.00
2018-03-04T20:58:15.503Z,30.30
2018-03-04T21:00:57.004Z,31.60
2018-03-04T21:03:37.534Z,31.20
2018-03-04T21:06:17.150Z,32.80
2018-03-04T21:08:57.818Z,32.90
2018-03-04T21:11:36.445Z,31.40
2018-03-04T21:14:15.038Z,32.10
2018-03-04T21:16:53.580Z,30.00
2018-03-04T21:19:34.162Z,29.50
2018-03-04T21:22:15.701Z,30.00
2018-03-04T21:24:56.605Z,30.00
2018-03-04T21:27:35.931Z,29.80
2018-03-04T21:30:14.778Z,31.20
2018-03-04T21:32:55.414Z,29.60
2018-03-04T21:35:37.826Z,29.90
2018-03-04T21:38:16.251Z,29.90
2018-03-04T21:40:55.910Z,29.50
2018-03-04T21:43:34.342Z,29.30
2018-03-04T21:46:13.955Z,27.60
2018-03-04T21:48:52.616Z,28.70
2018-03-04T21:51:33.018Z,28.70
2018-03-04T21:54:15.439Z,27.60
2018-03-04T21:56:55.203Z,28.40
2018-03-04T21:59:35.665Z,30.70
2018-03-04T22:02:13.059Z,30.70
2018-03-04T22:04:51.645Z,28.60
2018-03-04T22:07:30.912Z,27.90
2018-03-04T22:10:10.939Z,28.00
2018-03-04T22:12:51.515Z,27.30
2018-03-04T22:15:32.021Z,27.40
2018-03-04T22:18:10.553Z,27.00
2018-03-04T22:20:50.145Z,27.70
2018-03-04T22:23:30.198Z,27.10
2018-03-04T22:26:08.608Z,27.80
2018-03-04T22:28:47.148Z,27.30
2018-03-04T22:31:25.667Z,27.80
2018-03-04T22:34:04.148Z,27.00
2018-03-04T22:36:42.713Z,28.50
2018-03-04T22:39:22.339Z,27.90
2018-03-04T22:42:00.877Z,27.20
2018-03-04T22:44:41.470Z,27.60
2018-03-04T22:47:21.238Z,27.20
2018-03-04T22:50:01.790Z,28.40
2018-03-04T22:52:41.618Z,29.00
2018-03-04T22:55:20.944Z,27.80
2018-03-04T22:58:00.645Z,27.40
2018-03-04T23:00:39.130Z,27.60
2018-03-04T23:03:19.712Z,28.70
2018-03-04T23:05:58.264Z,27.90
2018-03-04T23:08:38.125Z,27.30
2018-03-04T23:11:16.406Z,29.70
2018-03-04T23:13:57.051Z,29.80
2018-03-04T23:16:36.099Z,28.60
2018-03-04T23:19:19.838Z,29.40
2018-03-04T23:22:00.303Z,29.20
2018-03-04T23:24:43.022Z,29.00
2018-03-04T23:27:26.567Z,28.60
2018-03-04T23:30:05.161Z,30.00
2018-03-04T23:32:43.672Z,29.50
2018-03-04T23:35:23.269Z,30.40
2018-03-04T23:38:03.697Z,30.40
2018-03-04T23:40:42.413Z,30.80
2018-03-04T23:43:20.705Z,30.30
2018-03-04T23:45:59.064Z,31.20
2018-03-04T23:48:38.881Z,33.40
2018-03-04T23:51:17.526Z,32.90
2018-03-04T23:53:56.330Z,33.40
2018-03-04T23:56:37.070Z,32.80
2018-03-04T23:59:14.319Z,31.70
